Observation data for Brownfield on 01/22/2019      Previous  Date  Next       Current Mesonet Observations  Soil Data  Daily Summary Page  Observations in Plain Language
KBWS 220600Z 18016G21KT 09/02 A2969 RMK A01 T00870016  RH  062%=      5-min Rain = 0
KBWS 220605Z 18015KT 09/02 A2969 RMK A01 T00860016  RH  062%=      5-min Rain = 0
KBWS 220610Z 19014KT 09/02 A2969 RMK A01 T00850016  RH  063%=      5-min Rain = 0
KBWS 220615Z 18014KT 09/02 A2969 RMK A01 T00850017  RH  063%=      5-min Rain = 0
KBWS 220620Z 18014KT 08/02 A2969 RMK A01 T00840017  RH  063%=      5-min Rain = 0
KBWS 220625Z 18013KT 08/02 A2968 RMK A01 T00830017  RH  064%=      5-min Rain = 0
KBWS 220630Z 18013KT 08/02 A2969 RMK A01 T00830018  RH  064%=      5-min Rain = 0
KBWS 220635Z 18013KT 08/02 A2968 RMK A01 T00830018  RH  064%=      5-min Rain = 0
KBWS 220640Z 18013KT 08/02 A2968 RMK A01 T00820018  RH  065%=      5-min Rain = 0
KBWS 220645Z 18013KT 08/02 A2968 RMK A01 T00820018  RH  065%=      5-min Rain = 0
KBWS 220650Z 18013KT 08/02 A2968 RMK A01 T00810018  RH  065%=      5-min Rain = 0
KBWS 220655Z 18013KT 08/02 A2967 RMK A01 T00810019  RH  066%=      5-min Rain = 0
KBWS 220700Z 18013G18KT 08/02 A2967 RMK A01 T00810019  RH  066%=      5-min Rain = 0
KBWS 220705Z 18014KT 08/02 A2967 RMK A01 T00810020  RH  066%=      5-min Rain = 0
KBWS 220710Z 18015KT 08/02 A2967 RMK A01 T00800021  RH  067%=      5-min Rain = 0
KBWS 220715Z 18015KT 08/02 A2967 RMK A01 T00810021  RH  067%=      5-min Rain = 0
KBWS 220720Z 18015KT 08/02 A2967 RMK A01 T00810022  RH  067%=      5-min Rain = 0
KBWS 220725Z 18016KT 08/02 A2967 RMK A01 T00810023  RH  067%=      5-min Rain = 0
KBWS 220730Z 18017KT 08/02 A2967 RMK A01 T00830024  RH  067%=      5-min Rain = 0
KBWS 220735Z 19016G21KT 08/03 A2967 RMK A01 T00840025  RH  067%=      5-min Rain = 0
KBWS 220740Z 19015KT 08/03 A2968 RMK A01 T00830025  RH  068%=      5-min Rain = 0
KBWS 220745Z 19014G19KT 08/03 A2968 RMK A01 T00820026  RH  069%=      5-min Rain = 0
KBWS 220750Z 19014KT 08/03 A2968 RMK A01 T00820026  RH  069%=      5-min Rain = 0
KBWS 220755Z 19014KT 08/03 A2968 RMK A01 T00830027  RH  069%=      5-min Rain = 0
KBWS 220800Z 19014KT 08/03 A2968 RMK A01 T00820027  RH  069%=      5-min Rain = 0
KBWS 220805Z 19013KT 08/03 A2968 RMK A01 T00820027  RH  069%=      5-min Rain = 0
KBWS 220810Z 19013KT 08/03 A2968 RMK A01 T00810027  RH  070%=      5-min Rain = 0
KBWS 220815Z 20013KT 08/03 A2968 RMK A01 T00810028  RH  070%=      5-min Rain = 0
KBWS 220820Z 20012KT 08/03 A2968 RMK A01 T00790028  RH  071%=      5-min Rain = 0
KBWS 220825Z 19013KT 08/03 A2968 RMK A01 T00790028  RH  071%=      5-min Rain = 0
KBWS 220830Z 20012KT 08/03 A2968 RMK A01 T00790028  RH  071%=      5-min Rain = 0
KBWS 220835Z 20013KT 08/03 A2968 RMK A01 T00810029  RH  070%=      5-min Rain = 0
KBWS 220840Z 20013G18KT 08/03 A2968 RMK A01 T00820029  RH  070%=      5-min Rain = 0
KBWS 220845Z 22011KT 08/03 A2969 RMK A01 T00820029  RH  070%=      5-min Rain = 0
KBWS 220850Z 21010KT 08/03 A2968 RMK A01 T00800029  RH  071%=      5-min Rain = 0
KBWS 220855Z 22011KT 08/03 A2968 RMK A01 T00810030  RH  071%=      5-min Rain = 0
KBWS 220900Z 21013KT 08/03 A2968 RMK A01 T00820030  RH  070%=      5-min Rain = 0
KBWS 220905Z 22011KT 08/03 A2968 RMK A01 T00810030  RH  071%=      5-min Rain = 0
KBWS 220910Z 22011KT 08/03 A2968 RMK A01 T00790030  RH  072%=      5-min Rain = 0
KBWS 220915Z 21011KT 08/03 A2968 RMK A01 T00770029  RH  072%=      5-min Rain = 0
KBWS 220920Z 21011KT 08/03 A2967 RMK A01 T00750028  RH  073%=      5-min Rain = 0
KBWS 220925Z 21010KT 07/03 A2967 RMK A01 T00740029  RH  074%=      5-min Rain = 0
KBWS 220930Z 21010KT 07/03 A2967 RMK A01 T00740029  RH  074%=      5-min Rain = 0
KBWS 220935Z 21009KT 07/03 A2967 RMK A01 T00730028  RH  074%=      5-min Rain = 0
KBWS 220940Z 22008KT 07/03 A2967 RMK A01 T00700028  RH  075%=      5-min Rain = 0
KBWS 220945Z 23008KT 07/03 A2968 RMK A01 T00680026  RH  076%=      5-min Rain = 0
KBWS 220950Z 24008KT 07/03 A2968 RMK A01 T00660025  RH  076%=      5-min Rain = 0
KBWS 220955Z 23007KT 06/02 A2968 RMK A01 T00610023  RH  078%=      5-min Rain = 0
KBWS 221000Z 23007KT 06/02 A2968 RMK A01 T00570022  RH  079%=      5-min Rain = 0
KBWS 221005Z 24007KT 06/02 A2968 RMK A01 T00570022  RH  079%=      5-min Rain = 0
KBWS 221010Z 24007KT 06/02 A2968 RMK A01 T00550022  RH  080%=      5-min Rain = 0
KBWS 221015Z 23007KT 06/02 A2968 RMK A01 T00550022  RH  080%=      5-min Rain = 0
KBWS 221020Z 22006KT 05/02 A2968 RMK A01 T00520020  RH  081%=      5-min Rain = 0
KBWS 221025Z 30013G23KT 05/02 A297 RMK A01 T00520022  RH  082%=      5-min Rain = 0
KBWS 221030Z 32014G20KT 06/02 A2971 RMK A01 T00570022  RH  080%=      5-min Rain = 0
KBWS 221035Z 26012G17KT 07/03 A297 RMK A01 T00650025  RH  077%=      5-min Rain = 0
KBWS 221040Z 27011G17KT 07/03 A2971 RMK A01 T00670025  RH  076%=      5-min Rain = 0
KBWS 221045Z 27011KT 07/03 A2971 RMK A01 T00690025  RH  074%=      5-min Rain = 0
KBWS 221050Z 28009KT 07/02 A2971 RMK A01 T00660022  RH  075%=      5-min Rain = 0
KBWS 221055Z 28009KT 07/02 A2971 RMK A01 T00660022  RH  075%=      5-min Rain = 0
KBWS 221100Z 28007KT 07/02 A2971 RMK A01 T00670022  RH  074%=      5-min Rain = 0
KBWS 221105Z 28007KT 07/02 A2971 RMK A01 T00660021  RH  074%=      5-min Rain = 0
KBWS 221110Z 28008KT 06/02 A2971 RMK A01 T00630020  RH  075%=      5-min Rain = 0
KBWS 221115Z 29007KT 06/02 A2971 RMK A01 T00610019  RH  075%=      5-min Rain = 0
KBWS 221120Z 29007KT 06/02 A2971 RMK A01 T00570017  RH  076%=      5-min Rain = 0
KBWS 221125Z 29007KT 05/02 A2971 RMK A01 T00530016  RH  078%=      5-min Rain = 0
KBWS 221130Z 30009KT 05/02 A2972 RMK A01 T00520016  RH  079%=      5-min Rain = 0
KBWS 221135Z 30008KT 05/01 A2972 RMK A01 T00520014  RH  078%=      5-min Rain = 0
KBWS 221140Z 31007KT 05/01 A2972 RMK A01 T00490011  RH  077%=      5-min Rain = 0
KBWS 221145Z 32007KT 05/01 A2971 RMK A01 T00460010  RH  078%=      5-min Rain = 0
KBWS 221150Z 32007KT 04/01 A2972 RMK A01 T00440009  RH  079%=      5-min Rain = 0
KBWS 221155Z 31007KT 04/01 A2972 RMK A01 T00420008  RH  079%=      5-min Rain = 0
KBWS 221200Z 32008KT 04/01 A2972 RMK A01 T00430009  RH  079%=      5-min Rain = 0
KBWS 221205Z 32008KT 05/01 A2972 RMK A01 T00460006  RH  076%=      5-min Rain = 0
KBWS 221210Z 33007KT 04/00 A2972 RMK A01 T00440004  RH  076%=      5-min Rain = 0
KBWS 221215Z 34006KT 05/00 A2973 RMK A01 T00470000  RH  073%=      5-min Rain = 0
KBWS 221220Z 34006KT 05/M00 A2973 RMK A01 T00511002  RH  069%=      5-min Rain = 0
KBWS 221225Z 34006KT 05/M00 A2973 RMK A01 T00511002  RH  069%=      5-min Rain = 0
KBWS 221230Z 34007KT 05/M00 A2973 RMK A01 T00481002  RH  071%=      5-min Rain = 0
KBWS 221235Z 34007KT 05/M00 A2973 RMK A01 T00511002  RH  069%=      5-min Rain = 0
KBWS 221240Z 34006KT 05/M00 A2974 RMK A01 T00511004  RH  068%=      5-min Rain = 0
KBWS 221245Z 35005KT 05/M01 A2974 RMK A01 T00521005  RH  067%=      5-min Rain = 0
KBWS 221250Z 35005KT 05/M01 A2974 RMK A01 T00491005  RH  068%=      5-min Rain = 0
KBWS 221255Z 34006KT 05/M01 A2974 RMK A01 T00511007  RH  067%=      5-min Rain = 0
KBWS 221300Z 34006KT 05/M01 A2974 RMK A01 T00491008  RH  067%=      5-min Rain = 0
KBWS 221305Z 35007KT 05/M01 A2974 RMK A01 T00501009  RH  066%=      5-min Rain = 0
KBWS 221310Z 34007KT 06/M01 A2974 RMK A01 T00551013  RH  062%=      5-min Rain = 0
KBWS 221315Z 34007KT 05/M01 A2975 RMK A01 T00541014  RH  062%=      5-min Rain = 0
KBWS 221320Z 34007KT 05/M02 A2975 RMK A01 T00541018  RH  060%=      5-min Rain = 0
KBWS 221325Z 33006KT 05/M02 A2975 RMK A01 T00521023  RH  059%=      5-min Rain = 0
KBWS 221330Z 34005KT 05/M03 A2975 RMK A01 T00461025  RH  060%=      5-min Rain = 0
KBWS 221335Z 33006KT 05/M03 A2976 RMK A01 T00501028  RH  057%=      5-min Rain = 0
KBWS 221340Z 33005KT 05/M03 A2976 RMK A01 T00481029  RH  058%=      5-min Rain = 0
KBWS 221345Z 33005KT 04/M03 A2976 RMK A01 T00411029  RH  061%=      5-min Rain = 0
KBWS 221350Z 33005KT 04/M03 A2976 RMK A01 T00381030  RH  062%=      5-min Rain = 0
KBWS 221355Z 32006KT 03/M03 A2976 RMK A01 T00341031  RH  063%=      5-min Rain = 0
KBWS 221400Z 32005KT 03/M03 A2976 RMK A01 T00331031  RH  064%=      5-min Rain = 0
KBWS 221405Z 32005KT 03/M03 A2976 RMK A01 T00341031  RH  063%=      5-min Rain = 0
KBWS 221410Z 30003KT 03/M03 A2977 RMK A01 T00341031  RH  063%=      5-min Rain = 0
KBWS 221415Z 31004KT 03/M03 A2977 RMK A01 T00331032  RH  063%=      5-min Rain = 0
KBWS 221420Z 31004KT 03/M03 A2977 RMK A01 T00321032  RH  064%=      5-min Rain = 0
KBWS 221425Z 30004KT 03/M03 A2978 RMK A01 T00291032  RH  065%=      5-min Rain = 0
KBWS 221430Z 29004KT 03/M03 A2978 RMK A01 T00271033  RH  065%=      5-min Rain = 0
KBWS 221435Z 29005KT 03/M03 A2978 RMK A01 T00281033  RH  065%=      5-min Rain = 0
KBWS 221440Z 27004KT 02/M03 A2979 RMK A01 T00231032  RH  068%=      5-min Rain = 0
KBWS 221445Z 28004KT 02/M03 A2978 RMK A01 T00181028  RH  072%=      5-min Rain = 0
KBWS 221450Z 28004KT 02/M03 A2978 RMK A01 T00181025  RH  074%=      5-min Rain = 0
KBWS 221455Z 28005KT 02/M02 A2978 RMK A01 T00231020  RH  074%=      5-min Rain = 0
KBWS 221500Z 29007KT 04/M02 A2979 RMK A01 T00351017  RH  070%=      5-min Rain = 0
KBWS 221505Z 29007KT 05/M02 A2979 RMK A01 T00471020  RH  062%=      5-min Rain = 0
KBWS 221510Z 30007KT 05/M02 A2979 RMK A01 T00541021  RH  059%=      5-min Rain = 0
KBWS 221515Z 30009KT 06/M03 A298 RMK A01 T00571026  RH  056%=      5-min Rain = 0
KBWS 221520Z 31010KT 06/M03 A298 RMK A01 T00621030  RH  052%=      5-min Rain = 0
KBWS 221525Z 31010KT 07/M03 A298 RMK A01 T00661029  RH  051%=      5-min Rain = 0
KBWS 221530Z 31011KT 07/M03 A2981 RMK A01 T00721031  RH  049%=      5-min Rain = 0
KBWS 221535Z 32009KT 08/M03 A2981 RMK A01 T00771033  RH  046%=      5-min Rain = 0
KBWS 221540Z 32011KT 08/M04 A2981 RMK A01 T00831037  RH  043%=      5-min Rain = 0
KBWS 221545Z 31013KT 09/M04 A2981 RMK A01 T00851040  RH  042%=      5-min Rain = 0
KBWS 221550Z 32013KT 09/M04 A2981 RMK A01 T00851043  RH  041%=      5-min Rain = 0
KBWS 221555Z 32014KT 08/M05 A2982 RMK A01 T00821046  RH  041%=      5-min Rain = 0
KBWS 221600Z 32013KT 08/M05 A2982 RMK A01 T00781047  RH  041%=      5-min Rain = 0
KBWS 221605Z 32010KT 08/M05 A2982 RMK A01 T00771046  RH  042%=      5-min Rain = 0
KBWS 221610Z 33010KT 08/M05 A2983 RMK A01 T00771047  RH  042%=      5-min Rain = 0
KBWS 221615Z 32008KT 08/M05 A2983 RMK A01 T00771046  RH  042%=      5-min Rain = 0
KBWS 221620Z 32007KT 08/M05 A2983 RMK A01 T00781047  RH  041%=      5-min Rain = 0
KBWS 221625Z 32006KT 08/M05 A2983 RMK A01 T00791045  RH  042%=      5-min Rain = 0
KBWS 221630Z 32005KT 08/M05 A2983 RMK A01 T00791046  RH  041%=      5-min Rain = 0
KBWS 221635Z 32005KT 08/M05 A2983 RMK A01 T00801047  RH  041%=      5-min Rain = 0
KBWS 221640Z 32006KT 08/M05 A2983 RMK A01 T00811048  RH  040%=      5-min Rain = 0
KBWS 221645Z 31006KT 08/M05 A2984 RMK A01 T00831047  RH  040%=      5-min Rain = 0
KBWS 221650Z 31008G13KT 09/M05 A2984 RMK A01 T00851051  RH  038%=      5-min Rain = 0
KBWS 221655Z 32010KT 09/M05 A2985 RMK A01 T00861054  RH  037%=      5-min Rain = 0
KBWS 221700Z 33012KT 09/M06 A2985 RMK A01 T00871057  RH  036%=      5-min Rain = 0
KBWS 221705Z 33013KT 09/M06 A2985 RMK A01 T00881058  RH  035%=      5-min Rain = 0
KBWS 221710Z 33016G26KT 09/M07 A2985 RMK A01 T00901066  RH  033%=      5-min Rain = 0
KBWS 221715Z 33017G26KT 09/M08 A2985 RMK A01 T00921075  RH  030%=      5-min Rain = 0
KBWS 221720Z 33022G31KT 09/M07 A2986 RMK A01 T00881073  RH  032%=      5-min Rain = 0
KBWS 221725Z 35023G32KT 08/M06 A2986 RMK A01 T00751057  RH  039%=      5-min Rain = 0
KBWS 221730Z 35021G30KT 06/M05 A2988 RMK A01 T00621045  RH  047%=      5-min Rain = 0
KBWS 221735Z 35022G31KT 05/M03 A2989 RMK A01 T00521031  RH  056%=      5-min Rain = 0
KBWS 221740Z 36024G32KT 05/M03 A2989 RMK A01 T00471027  RH  059%=      5-min Rain = 0
KBWS 221745Z 00025G33KT 04/M02 A2989 RMK A01 T00441024  RH  062%=      5-min Rain = 0
KBWS 221750Z 01024G30KT 05/M02 A2989 RMK A01 T00451021  RH  063%=      5-min Rain = 0
KBWS 221755Z 36019G25KT 05/M02 A299 RMK A01 T00461022  RH  062%=      5-min Rain = 0
KBWS 221800Z 01019G27KT 05/M02 A299 RMK A01 T00491018  RH  062%=      5-min Rain = 0
KBWS 221805Z 01021G28KT 05/M02 A299 RMK A01 T00481018  RH  063%=      5-min Rain = 0
KBWS 221810Z 01017G23KT 05/M02 A299 RMK A01 T00511018  RH  062%=      5-min Rain = 0
KBWS 221815Z 01018G24KT 05/M02 A299 RMK A01 T00501019  RH  062%=      5-min Rain = 0
KBWS 221820Z 01021G29KT 05/M02 A299 RMK A01 T00501018  RH  062%=      5-min Rain = 0
KBWS 221825Z 01023G29KT 05/M02 A2991 RMK A01 T00481022  RH  061%=      5-min Rain = 0
KBWS 221830Z 00021G29KT 05/M03 A2991 RMK A01 T00481027  RH  059%=      5-min Rain = 0
KBWS 221835Z 36023G32KT 05/M03 A2991 RMK A01 T00481030  RH  058%=      5-min Rain = 0
KBWS 221840Z 35021G30KT 05/M03 A2992 RMK A01 T00461031  RH  058%=      5-min Rain = 0
KBWS 221845Z 35023G30KT 05/M03 A2992 RMK A01 T00451034  RH  057%=      5-min Rain = 0
KBWS 221850Z 36022G28KT 04/M04 A2992 RMK A01 T00421035  RH  058%=      5-min Rain = 0
KBWS 221855Z 35023G29KT 04/M04 A2993 RMK A01 T00391038  RH  058%=      5-min Rain = 0
KBWS 221900Z 34022G29KT 04/M04 A2993 RMK A01 T00381039  RH  057%=      5-min Rain = 0
KBWS 221905Z 35021G29KT 04/M04 A2993 RMK A01 T00441041  RH  055%=      5-min Rain = 0
KBWS 221910Z 35022G29KT 04/M05 A2994 RMK A01 T00381045  RH  055%=      5-min Rain = 0
KBWS 221915Z 36019G25KT 04/M04 A2994 RMK A01 T00351044  RH  057%=      5-min Rain = 0
KBWS 221920Z 36019G24KT 04/M04 A2995 RMK A01 T00401043  RH  055%=      5-min Rain = 0
KBWS 221925Z 36019G25KT 04/M04 A2994 RMK A01 T00401044  RH  055%=      5-min Rain = 0
KBWS 221930Z 00019G25KT 04/M05 A2995 RMK A01 T00371045  RH  056%=      5-min Rain = 0
KBWS 221935Z 00021G27KT 03/M05 A2995 RMK A01 T00341045  RH  057%=      5-min Rain = 0
KBWS 221940Z 00020G26KT 04/M04 A2994 RMK A01 T00371044  RH  056%=      5-min Rain = 0
KBWS 221945Z 35019G24KT 04/M05 A2994 RMK A01 T00361046  RH  056%=      5-min Rain = 0
KBWS 221950Z 36023G29KT 04/M05 A2995 RMK A01 T00391045  RH  055%=      5-min Rain = 0
KBWS 221955Z 35017G24KT 04/M04 A2994 RMK A01 T00431042  RH  055%=      5-min Rain = 0
KBWS 222000Z 36020G29KT 04/M04 A2995 RMK A01 T00431044  RH  054%=      5-min Rain = 0
KBWS 222005Z 36020G27KT 04/M05 A2995 RMK A01 T00401048  RH  053%=      5-min Rain = 0
KBWS 222010Z 36021G28KT 04/M05 A2994 RMK A01 T00421046  RH  053%=      5-min Rain = 0
KBWS 222015Z 36021G27KT 04/M05 A2995 RMK A01 T00421049  RH  052%=      5-min Rain = 0
KBWS 222020Z 36022G28KT 04/M05 A2995 RMK A01 T00411053  RH  051%=      5-min Rain = 0
KBWS 222025Z 35020G27KT 04/M06 A2995 RMK A01 T00421056  RH  049%=      5-min Rain = 0
KBWS 222030Z 36021G32KT 04/M06 A2996 RMK A01 T00431060  RH  048%=      5-min Rain = 0
KBWS 222035Z 36022G28KT 04/M07 A2996 RMK A01 T00401065  RH  047%=      5-min Rain = 0
KBWS 222040Z 34021G29KT 04/M07 A2997 RMK A01 T00421067  RH  045%=      5-min Rain = 0
KBWS 222045Z 35022G28KT 04/M07 A2997 RMK A01 T00431070  RH  044%=      5-min Rain = 0
KBWS 222050Z 34021G27KT 04/M07 A2997 RMK A01 T00431073  RH  043%=      5-min Rain = 0
KBWS 222055Z 34021G31KT 05/M07 A2997 RMK A01 T00451073  RH  042%=      5-min Rain = 0
KBWS 222100Z 35019G25KT 05/M08 A2998 RMK A01 T00461075  RH  041%=      5-min Rain = 0
KBWS 222105Z 36018G24KT 05/M08 A2998 RMK A01 T00471079  RH  040%=      5-min Rain = 0
KBWS 222110Z 36019G26KT 05/M08 A2998 RMK A01 T00481082  RH  039%=      5-min Rain = 0
KBWS 222115Z 35019G27KT 05/M09 A2999 RMK A01 T00481085  RH  038%=      5-min Rain = 0
KBWS 222120Z 35022G30KT 05/M09 A2999 RMK A01 T00471086  RH  038%=      5-min Rain = 0
KBWS 222125Z 35021G29KT 05/M09 A2999 RMK A01 T00491085  RH  038%=      5-min Rain = 0
KBWS 222130Z 36019G26KT 05/M09 A2999 RMK A01 T00491085  RH  038%=      5-min Rain = 0
KBWS 222135Z 35019G26KT 05/M09 A30 RMK A01 T00511085  RH  037%=      5-min Rain = 0
KBWS 222140Z 35021G27KT 05/M09 A2999 RMK A01 T00501086  RH  037%=      5-min Rain = 0
KBWS 222145Z 00022G31KT 05/M09 A2999 RMK A01 T00511085  RH  037%=      5-min Rain = 0
KBWS 222150Z 35022G31KT 05/M09 A30 RMK A01 T00511085  RH  037%=      5-min Rain = 0
KBWS 222155Z 35022G30KT 05/M09 A30 RMK A01 T00471088  RH  037%=      5-min Rain = 0
KBWS 222200Z 35020G28KT 05/M09 A30 RMK A01 T00511088  RH  036%=      5-min Rain = 0
KBWS 222205Z 34024G32KT 05/M10 A30 RMK A01 T00481095  RH  035%=      5-min Rain = 0
KBWS 222210Z 34024G32KT 05/M10 A30 RMK A01 T00471099  RH  034%=      5-min Rain = 0
KBWS 222215Z 35022G29KT 04/M10 A3001 RMK A01 T00441099  RH  035%=      5-min Rain = 0
KBWS 222220Z 35024G32KT 04/M10 A3001 RMK A01 T00431100  RH  035%=      5-min Rain = 0
KBWS 222225Z 35024G32KT 04/M10 A3001 RMK A01 T00421100  RH  035%=      5-min Rain = 0
KBWS 222230Z 35024G33KT 04/M10 A3002 RMK A01 T00421099  RH  035%=      5-min Rain = 0
KBWS 222235Z 35026G34KT 04/M10 A3001 RMK A01 T00421099  RH  036%=      5-min Rain = 0
KBWS 222240Z 35023G31KT 04/M10 A3002 RMK A01 T00431097  RH  036%=      5-min Rain = 0
KBWS 222245Z 36021G29KT 04/M10 A3002 RMK A01 T00431096  RH  036%=      5-min Rain = 0
KBWS 222250Z 35026G34KT 04/M10 A3003 RMK A01 T00431099  RH  035%=      5-min Rain = 0
KBWS 222255Z 35024G30KT 04/M10 A3004 RMK A01 T00421099  RH  036%=      5-min Rain = 0
KBWS 222300Z 35023G31KT 04/M10 A3004 RMK A01 T00411098  RH  036%=      5-min Rain = 0
KBWS 222305Z 35024G33KT 04/M10 A3005 RMK A01 T00401098  RH  036%=      5-min Rain = 0
KBWS 222310Z 35023G31KT 04/M10 A3005 RMK A01 T00401096  RH  037%=      5-min Rain = 0
KBWS 222315Z 36024G32KT 04/M09 A3005 RMK A01 T00361094  RH  038%=      5-min Rain = 0
KBWS 222320Z 35023G31KT 04/M09 A3005 RMK A01 T00351094  RH  039%=      5-min Rain = 0
KBWS 222325Z 35025G34KT 03/M10 A3006 RMK A01 T00331097  RH  038%=      5-min Rain = 0
KBWS 222330Z 35023G34KT 03/M10 A3006 RMK A01 T00311097  RH  039%=      5-min Rain = 0
KBWS 222335Z 35023G29KT 03/M10 A3006 RMK A01 T00311097  RH  039%=      5-min Rain = 0
KBWS 222340Z 35022G29KT 03/M10 A3007 RMK A01 T00311097  RH  039%=      5-min Rain = 0
KBWS 222345Z 35018G23KT 03/M10 A3007 RMK A01 T00301096  RH  039%=      5-min Rain = 0
KBWS 222350Z 35018G25KT 03/M10 A3007 RMK A01 T00291097  RH  040%=      5-min Rain = 0
KBWS 222355Z 36019G29KT 03/M10 A3007 RMK A01 T00281098  RH  039%=      5-min Rain = 0
KBWS 230000Z 36019G29KT 03/M10 A3008 RMK A01 T00271099  RH  040%=      5-min Rain = 0
KBWS 230005Z 36018G23KT 03/M10 A3008 RMK A01 T00261098  RH  040%=      5-min Rain = 0
KBWS 230010Z 35017G22KT 03/M10 A3008 RMK A01 T00251097  RH  041%=      5-min Rain = 0
KBWS 230015Z 35016G25KT 03/M10 A3008 RMK A01 T00251097  RH  041%=      5-min Rain = 0
KBWS 230020Z 36018G24KT 02/M10 A3008 RMK A01 T00241096  RH  041%=      5-min Rain = 0
KBWS 230025Z 36016G21KT 02/M10 A3009 RMK A01 T00231096  RH  041%=      5-min Rain = 0
KBWS 230030Z 36017G25KT 02/M10 A3009 RMK A01 T00221096  RH  042%=      5-min Rain = 0
KBWS 230035Z 36015G20KT 02/M10 A3009 RMK A01 T00211095  RH  042%=      5-min Rain = 0
KBWS 230040Z 35014G22KT 02/M09 A3009 RMK A01 T00211094  RH  043%=      5-min Rain = 0
KBWS 230045Z 36015G20KT 02/M09 A301 RMK A01 T00211093  RH  043%=      5-min Rain = 0
KBWS 230050Z 36015G20KT 02/M09 A301 RMK A01 T00211093  RH  043%=      5-min Rain = 0
KBWS 230055Z 36016G21KT 02/M09 A301 RMK A01 T00201091  RH  044%=      5-min Rain = 0
KBWS 230100Z 36016G21KT 02/M09 A3011 RMK A01 T00201089  RH  045%=      5-min Rain = 0
KBWS 230105Z 36017G23KT 02/M09 A3011 RMK A01 T00191087  RH  046%=      5-min Rain = 0
KBWS 230110Z 00017G22KT 02/M09 A3012 RMK A01 T00191086  RH  046%=      5-min Rain = 0
KBWS 230115Z 35019G28KT 02/M09 A3012 RMK A01 T00181086  RH  046%=      5-min Rain = 0
KBWS 230120Z 36020G29KT 02/M09 A3013 RMK A01 T00191085  RH  047%=      5-min Rain = 0
KBWS 230125Z 36020G30KT 02/M08 A3013 RMK A01 T00191083  RH  047%=      5-min Rain = 0
KBWS 230130Z 36018G27KT 02/M08 A3014 RMK A01 T00171081  RH  048%=      5-min Rain = 0
KBWS 230135Z 00019G25KT 02/M08 A3014 RMK A01 T00161080  RH  049%=      5-min Rain = 0
KBWS 230140Z 00018G26KT 02/M08 A3014 RMK A01 T00151080  RH  050%=      5-min Rain = 0
KBWS 230145Z 36019G26KT 01/M08 A3014 RMK A01 T00141082  RH  049%=      5-min Rain = 0
KBWS 230150Z 01018G24KT 01/M08 A3014 RMK A01 T00131083  RH  050%=      5-min Rain = 0
KBWS 230155Z 01016G22KT 01/M09 A3014 RMK A01 T00111085  RH  049%=      5-min Rain = 0
KBWS 230200Z 01017G22KT 01/M09 A3014 RMK A01 T00101086  RH  049%=      5-min Rain = 0
KBWS 230205Z 01015G20KT 01/M09 A3015 RMK A01 T00091085  RH  050%=      5-min Rain = 0
KBWS 230210Z 01016G21KT 01/M09 A3015 RMK A01 T00081085  RH  051%=      5-min Rain = 0
KBWS 230215Z 01015KT 01/M08 A3015 RMK A01 T00071084  RH  051%=      5-min Rain = 0
KBWS 230220Z 01013G19KT 01/M08 A3015 RMK A01 T00051084  RH  052%=      5-min Rain = 0
KBWS 230225Z 01014G19KT 00/M08 A3015 RMK A01 T00041084  RH  052%=      5-min Rain = 0
KBWS 230230Z 01014KT 00/M08 A3015 RMK A01 T00031084  RH  053%=      5-min Rain = 0
KBWS 230235Z 01013G19KT 00/M08 A3016 RMK A01 T00031083  RH  053%=      5-min Rain = 0
KBWS 230240Z 01012KT 00/M08 A3016 RMK A01 T00011083  RH  054%=      5-min Rain = 0
KBWS 230245Z 01012KT 00/08 A3016 RMK A01 T00-00-83  RH  054%=      5-min Rain = 0
KBWS 230250Z 01012KT M00/M08 A3016 RMK A01 T10021083  RH  055%=      5-min Rain = 0
KBWS 230255Z 01013KT M00/M08 A3016 RMK A01 T10021083  RH  055%=      5-min Rain = 0
KBWS 230300Z 01012KT M00/M08 A3016 RMK A01 T10031083  RH  055%=      5-min Rain = 0
KBWS 230305Z 01011KT M00/M08 A3016 RMK A01 T10041082  RH  056%=      5-min Rain = 0
KBWS 230310Z 01010KT M01/M08 A3017 RMK A01 T10051082  RH  056%=      5-min Rain = 0
KBWS 230315Z 01010KT M01/M08 A3017 RMK A01 T10061082  RH  057%=      5-min Rain = 0
KBWS 230320Z 01010KT M01/M08 A3017 RMK A01 T10061081  RH  058%=      5-min Rain = 0
KBWS 230325Z 01009KT M01/M08 A3017 RMK A01 T10081081  RH  058%=      5-min Rain = 0
KBWS 230330Z 01009KT M01/M08 A3018 RMK A01 T10081080  RH  059%=      5-min Rain = 0
KBWS 230335Z 01008KT M01/M08 A3018 RMK A01 T10091079  RH  060%=      5-min Rain = 0
KBWS 230340Z 01009KT M01/M08 A3018 RMK A01 T10091079  RH  060%=      5-min Rain = 0
KBWS 230345Z 01009KT M01/M08 A3018 RMK A01 T10101078  RH  061%=      5-min Rain = 0
KBWS 230350Z 00009KT M01/M08 A3018 RMK A01 T10101078  RH  061%=      5-min Rain = 0
KBWS 230355Z 00009KT M01/M08 A3018 RMK A01 T10111078  RH  061%=      5-min Rain = 0
KBWS 230400Z 36008KT M01/M08 A3018 RMK A01 T10121078  RH  062%=      5-min Rain = 0
KBWS 230405Z 35007KT M01/M08 A3018 RMK A01 T10131078  RH  062%=      5-min Rain = 0
KBWS 230410Z 36007KT M01/M08 A3018 RMK A01 T10141078  RH  062%=      5-min Rain = 0
KBWS 230415Z 34006KT M02/M08 A3019 RMK A01 T10151078  RH  063%=      5-min Rain = 0
KBWS 230420Z 34006KT M02/M08 A3019 RMK A01 T10171079  RH  063%=      5-min Rain = 0
KBWS 230425Z 34006KT M02/M08 A3019 RMK A01 T10181079  RH  064%=      5-min Rain = 0
KBWS 230430Z 33006KT M02/M08 A3019 RMK A01 T10211081  RH  064%=      5-min Rain = 0
KBWS 230435Z 32005KT M02/M08 A3019 RMK A01 T10231082  RH  065%=      5-min Rain = 0
KBWS 230440Z 31006KT M03/M09 A3019 RMK A01 T10291085  RH  066%=      5-min Rain = 0
KBWS 230445Z 31006KT M03/M09 A3019 RMK A01 T10321086  RH  067%=      5-min Rain = 0
KBWS 230450Z 31006KT M03/M09 A3019 RMK A01 T10331087  RH  067%=      5-min Rain = 0
KBWS 230455Z 31005KT M03/M09 A302 RMK A01 T10341088  RH  067%=      5-min Rain = 0
KBWS 230500Z 33006KT M03/M09 A302 RMK A01 T10341087  RH  067%=      5-min Rain = 0
KBWS 230505Z 34005KT M03/M09 A302 RMK A01 T10311085  RH  067%=      5-min Rain = 0
KBWS 230510Z 34005KT M03/M09 A3021 RMK A01 T10291085  RH  066%=      5-min Rain = 0
KBWS 230515Z 33006KT M03/M09 A3021 RMK A01 T10291085  RH  066%=      5-min Rain = 0
KBWS 230520Z 31007KT M03/M09 A3021 RMK A01 T10311085  RH  067%=      5-min Rain = 0
KBWS 230525Z 31007KT M03/M09 A3022 RMK A01 T10331086  RH  068%=      5-min Rain = 0
KBWS 230530Z 30006KT M04/M09 A3022 RMK A01 T10351086  RH  068%=      5-min Rain = 0
KBWS 230535Z 30006KT M04/M09 A3022 RMK A01 T10371087  RH  069%=      5-min Rain = 0
KBWS 230540Z 30006KT M04/M09 A3022 RMK A01 T10401088  RH  070%=      5-min Rain = 0
KBWS 230545Z 31006KT M04/M09 A3022 RMK A01 T10431089  RH  071%=      5-min Rain = 0
KBWS 230550Z 32008KT M04/M09 A3021 RMK A01 T10381086  RH  070%=      5-min Rain = 0
KBWS 230555Z 31007KT M04/M09 A3021 RMK A01 T10371087  RH  069%=      5-min Rain = 0

Page generated in 0.0154 seconds.